DIBK

Details ICAO DIBK (BYK)
Name BOUAKE
Region Côte d'Ivoire
Timezone Africa/Abidjan (UTC+0.0)
Plans Departing 6
Arriving 7
Stats Elevation 1,230 ft / 375 m (AMSL)
Location 7.738800° -5.073666°
Runways 1
Magnetic Variation 4.313° W
Sunrise 2018-05-22 06:03:14 UTC / 2018-05-22 06:03:14 Local
Sunset 2018-05-22 18:33:33 UTC / 2018-05-22 18:33:33 Local
Advertisement - Login to hide

Runways

ID Width Length Bearing (true) Bearing (mag) Surface Threshold Offset Overrun Length
03 148 ft / 45 m 10,872 ft / 3,314 m 24.08° 28.39° Asphalt 0 ft / 0 m 951 ft / 290 m
21 148 ft / 45 m 10,872 ft / 3,314 m 204.08° 208.39° Asphalt 0 ft / 0 m 951 ft / 290 m

Map

Weather


0- 5 10 15 20 25 30 35+ Temperature / ° C

Clouds and Precipitation
Forecast for 2018-05-22 18:00 UTC. Updated 5 hours ago

Ground ~20,000 ft ~40,000 ft Winds

METAR

DIBK 222200Z 18004KT 9999 TS SCT013 FEW020CB 28/24 Q1011 NOSIG

TAF

TAF DIBK 221700Z 2218/2318 VRB04KT 8000 SCT013 TEMPO 2304/2308 4000 BR SCT006 BKN010 TEMPO 2309/2312 BKN012 BECMG 2311/2312 23010KT

Frequencies

Ground 121.70 MHz GND
Tower 118.90 MHz TWR
Tower 121.70 MHz TWR
Approach 120.00 MHz APP
Warning: Do not use this data for real-world aviation or navigation. No guarantee of current accuracy is given.